< < Back
Terminal Aerodrome Forecast


Current Version              Previous Versions:   1  2  3  4  5  6  7  8  9  

Terminal Aerodrome Forecast

771
FTUS42 KFFC 041731
TAFAHN
TAF
KAHN 041731Z 0418/0518 25013G21KT P6SM SCT040 BKN100
     FM050000 23004KT P6SM VCSH BKN040
     FM050200 00000KT 6SM SHRA BKN050
      TEMPO 0503/0507 VRB15G25KT 3SM TSRA BKN025CB
     FM050700 34005KT 6SM BR BKN015
     FM051500 24006KT P6SM BKN045=

Latest METAR

747
SAUS70 KWBC 041900
MTRAHN
METAR KAHN 041851Z 22006KT 10SM CLR 27/21 A3005 RMK AO2 SLP170
T02720211


USA.gov is the U.S. government's official web portal to all federal, state and local government web resources and services.